Time;durP1;ratioP1;P1;durP2;ratioP2;P2;SDS_P1;SDS_P2;PMS_P1;PMS_P2;Temp;Humidity;BMP_temperature;BMP_pressure;BME280_temperature;BME280_humidity;BME280_pressure;Samples;Min_cycle;Max_cycle;Signal;HPM_P1;HPM_P2
2021/05/29 00:00:47;;;;;;;16.55;13.82;;;17.50;99.90;;;;;;5054530;28;20021;-74
2021/05/29 00:03:13;;;;;;;16.08;14.23;;;17.50;99.90;;;;;;5054227;28;20071;-74
2021/05/29 00:05:40;;;;;;;15.63;13.25;;;17.50;99.90;;;;;;5052920;28;20017;-73
2021/05/29 00:08:06;;;;;;;17.65;13.82;;;17.60;99.90;;;;;;5054355;28;20045;-74
2021/05/29 00:10:32;;;;;;;18.35;14.88;;;17.60;99.90;;;;;;5054281;28;20027;-74
2021/05/29 00:12:58;;;;;;;17.17;13.35;;;17.60;99.90;;;;;;5054275;28;20103;-74
2021/05/29 00:15:23;;;;;;;16.10;14.23;;;17.60;99.90;;;;;;5054498;28;20032;-73
2021/05/29 00:17:49;;;;;;;17.55;14.85;;;17.60;99.90;;;;;;5054382;28;20128;-74
2021/05/29 00:20:15;;;;;;;17.10;13.82;;;17.60;99.90;;;;;;5054066;28;20033;-73
2021/05/29 00:22:41;;;;;;;18.27;16.10;;;17.60;99.90;;;;;;5053839;28;20039;-73
2021/05/29 00:25:07;;;;;;;17.05;15.20;;;17.60;99.90;;;;;;5053804;28;20044;-73
2021/05/29 00:27:32;;;;;;;19.92;16.25;;;17.50;99.90;;;;;;5052279;28;20121;-73
2021/05/29 00:29:59;;;;;;;19.33;16.92;;;17.60;99.90;;;;;;5052192;28;20475;-73
2021/05/29 00:32:24;;;;;;;20.48;17.05;;;17.60;99.90;;;;;;5053597;28;20067;-73
2021/05/29 00:34:50;;;;;;;18.70;16.05;;;17.50;99.90;;;;;;5053415;28;20055;-73
2021/05/29 00:37:16;;;;;;;20.92;16.25;;;17.50;99.90;;;;;;5053590;28;20102;-72
2021/05/29 00:39:41;;;;;;;20.70;16.77;;;17.50;99.90;;;;;;5053555;28;20490;-72
2021/05/29 00:42:07;;;;;;;18.98;16.23;;;17.50;99.90;;;;;;5053311;28;20036;-72
2021/05/29 00:44:53;;;;;;;18.83;16.85;;;17.50;99.90;;;;;;5053484;28;20491;-72
2021/05/29 00:47:20;;;;;;;17.92;16.00;;;17.40;99.90;;;;;;5053192;28;20025;-73
2021/05/29 00:49:46;;;;;;;20.02;17.95;;;17.50;99.90;;;;;;5053213;28;20151;-73
2021/05/29 00:52:14;;;;;;;19.75;15.77;;;17.50;99.90;;;;;;5053255;28;20044;-73
2021/05/29 00:54:41;;;;;;;21.77;17.40;;;17.50;99.90;;;;;;5052998;28;20074;-73
2021/05/29 00:57:07;;;;;;;23.00;18.60;;;17.50;99.90;;;;;;5053256;28;20372;-73
2021/05/29 00:59:33;;;;;;;34.75;20.25;;;17.50;99.90;;;;;;5053277;28;20028;-73
2021/05/29 01:01:58;;;;;;;28.25;19.30;;;17.50;99.90;;;;;;5053151;28;20021;-73
2021/05/29 01:04:24;;;;;;;26.33;20.52;;;17.60;99.90;;;;;;5052933;28;20025;-74
2021/05/29 01:06:50;;;;;;;24.20;18.98;;;17.60;99.90;;;;;;5053105;28;20029;-74
2021/05/29 01:09:15;;;;;;;25.52;19.55;;;17.60;99.90;;;;;;5053191;28;20148;-74
2021/05/29 01:11:41;;;;;;;22.25;18.13;;;17.70;99.90;;;;;;5053043;28;20021;-74
2021/05/29 01:14:07;;;;;;;28.60;19.08;;;17.70;99.90;;;;;;5052794;28;20021;-73
2021/05/29 01:19:05;;;;;;;21.08;18.50;;;17.70;99.90;;;;;;5053263;28;20724;-73
2021/05/29 01:21:32;;;;;;;22.30;17.02;;;17.70;99.90;;;;;;5052043;28;20032;-74
2021/05/29 01:23:57;;;;;;;21.23;16.65;;;17.70;99.90;;;;;;5053025;28;20055;-72
2021/05/29 01:26:23;;;;;;;23.23;16.50;;;17.80;99.90;;;;;;5052789;28;20053;-72
2021/05/29 01:28:56;;;;;;;19.52;16.80;;;17.80;99.90;;;;;;5052399;28;20047;-72
2021/05/29 01:31:31;;;;;;;33.45;20.05;;;17.80;99.90;;;;;;5052799;28;20105;-72
2021/05/29 01:33:59;;;;;;;24.30;17.63;;;17.70;99.90;;;;;;5052758;28;20025;-72
2021/05/29 01:36:26;;;;;;;23.85;18.90;;;17.60;99.90;;;;;;5052801;28;20016;-72
2021/05/29 01:38:52;;;;;;;19.08;16.23;;;17.60;99.90;;;;;;5052865;28;20017;-72
2021/05/29 01:41:21;;;;;;;23.05;17.90;;;17.60;99.90;;;;;;5051223;28;20090;-71
2021/05/29 01:43:50;;;;;;;20.40;16.90;;;17.70;99.90;;;;;;5052438;28;20075;-72
2021/05/29 01:46:19;;;;;;;20.20;16.98;;;17.70;99.90;;;;;;5052232;28;20048;-72
2021/05/29 01:48:47;;;;;;;19.02;15.65;;;17.70;99.90;;;;;;5051011;28;20033;-71
2021/05/29 01:51:15;;;;;;;19.65;16.38;;;17.70;99.90;;;;;;5052335;28;20021;-72
2021/05/29 01:53:41;;;;;;;30.08;19.50;;;17.80;99.90;;;;;;5052366;28;20456;-72
2021/05/29 01:56:08;;;;;;;25.48;19.00;;;17.80;99.90;;;;;;5052268;28;20035;-72
2021/05/29 01:58:36;;;;;;;22.63;16.85;;;17.80;99.90;;;;;;5052112;28;20016;-73
2021/05/29 02:01:04;;;;;;;21.77;16.17;;;17.70;99.90;;;;;;5052174;28;20422;-73
2021/05/29 02:03:29;;;;;;;21.27;16.77;;;17.80;99.90;;;;;;5050820;28;20031;-73
2021/05/29 02:05:55;;;;;;;21.98;16.27;;;17.80;99.90;;;;;;5052134;28;20025;-72
2021/05/29 02:08:21;;;;;;;23.08;16.85;;;17.80;99.90;;;;;;5051987;28;20446;-72
2021/05/29 02:10:47;;;;;;;21.35;17.85;;;17.90;99.90;;;;;;5052016;28;20028;-72
2021/05/29 02:13:25;;;;;;;21.40;18.63;;;17.90;99.90;;;;;;5052142;28;20156;-72
2021/05/29 02:15:52;;;;;;;21.27;17.67;;;18.00;99.90;;;;;;5051459;28;20468;-72
2021/05/29 02:18:18;;;;;;;21.42;17.48;;;18.00;99.90;;;;;;5051826;28;20029;-72
2021/05/29 02:20:50;;;;;;;26.35;18.33;;;18.00;99.90;;;;;;5050587;28;20021;-72
2021/05/29 02:23:24;;;;;;;23.60;18.98;;;18.00;99.90;;;;;;5051705;28;20025;-72
2021/05/29 02:25:52;;;;;;;23.38;18.15;;;18.00;99.90;;;;;;5084043;28;20116;-72
2021/05/29 02:28:19;;;;;;;25.60;18.67;;;18.10;99.90;;;;;;5051531;28;20503;-72
2021/05/29 02:30:46;;;;;;;25.35;18.65;;;18.10;99.90;;;;;;5051685;28;20498;-72
2021/05/29 02:33:12;;;;;;;21.25;18.13;;;18.10;99.90;;;;;;5051529;28;20024;-72
2021/05/29 02:35:38;;;;;;;24.55;18.20;;;18.20;99.90;;;;;;5051528;28;20025;-72
2021/05/29 02:38:05;;;;;;;22.60;18.30;;;18.20;99.90;;;;;;5051550;28;20028;-74
2021/05/29 02:40:31;;;;;;;27.98;19.35;;;18.20;99.90;;;;;;5051773;28;20472;-74
2021/05/29 02:42:57;;;;;;;20.23;17.75;;;18.40;99.90;;;;;;5051658;28;20083;-75
2021/05/29 02:45:23;;;;;;;23.17;18.65;;;18.50;99.90;;;;;;5050458;28;20029;-74
2021/05/29 02:47:49;;;;;;;24.35;19.83;;;18.60;99.90;;;;;;5050522;28;20032;-74
2021/05/29 02:50:15;;;;;;;27.95;20.65;;;18.60;99.90;;;;;;5050428;28;20033;-74
2021/05/29 02:52:42;;;;;;;31.08;20.73;;;18.60;99.90;;;;;;5051957;28;20029;-74
2021/05/29 02:55:11;;;;;;;28.08;20.60;;;18.60;99.90;;;;;;5051790;28;20017;-74
2021/05/29 02:57:37;;;;;;;27.25;20.83;;;18.60;99.90;;;;;;5051566;28;20017;-74
2021/05/29 03:00:09;;;;;;;31.55;22.55;;;18.60;99.90;;;;;;5051482;28;20025;-74
2021/05/29 03:02:35;;;;;;;27.67;21.95;;;18.60;99.90;;;;;;5051594;28;20029;-74
2021/05/29 03:05:01;;;;;;;29.30;22.88;;;18.60;99.90;;;;;;5051353;28;20039;-74
2021/05/29 03:07:27;;;;;;;34.05;22.05;;;18.60;99.90;;;;;;5051487;28;20060;-74
2021/05/29 03:09:53;;;;;;;33.33;22.52;;;18.70;99.90;;;;;;5051412;28;20075;-74
2021/05/29 03:12:19;;;;;;;30.35;22.70;;;18.70;99.90;;;;;;5051473;28;20029;-75
2021/05/29 03:14:44;;;;;;;28.65;21.55;;;18.70;99.90;;;;;;5050338;28;20051;-74
2021/05/29 03:17:10;;;;;;;33.40;24.30;;;18.80;99.90;;;;;;5051573;28;20031;-74
2021/05/29 03:19:36;;;;;;;28.55;22.13;;;18.80;99.90;;;;;;5051478;28;20029;-75
2021/05/29 03:22:02;;;;;;;31.15;22.77;;;18.80;99.90;;;;;;5051282;28;20056;-74
2021/05/29 03:24:27;;;;;;;30.67;22.30;;;18.90;99.90;;;;;;5051363;28;20029;-72
2021/05/29 03:26:53;;;;;;;31.27;22.35;;;18.90;99.90;;;;;;5051380;28;20090;-73
2021/05/29 03:29:19;;;;;;;29.63;21.55;;;18.90;99.90;;;;;;5054972;28;20045;-73
2021/05/29 03:31:45;;;;;;;32.75;21.88;;;18.90;99.90;;;;;;5055388;28;20025;-73
2021/05/29 03:34:11;;;;;;;30.65;22.63;;;18.90;99.90;;;;;;5055469;28;20486;-73
2021/05/29 03:36:37;;;;;;;29.88;22.10;;;18.90;99.90;;;;;;5054266;28;20036;-73
2021/05/29 03:39:04;;;;;;;26.63;21.33;;;19.00;99.90;;;;;;5055031;28;20364;-73
2021/05/29 03:41:30;;;;;;;32.85;22.00;;;19.00;99.90;;;;;;5055039;28;20029;-73
2021/05/29 03:43:56;;;;;;;26.17;21.33;;;19.00;99.90;;;;;;5054899;28;20470;-72
2021/05/29 03:46:22;;;;;;;31.00;21.30;;;19.10;99.90;;;;;;5053323;28;20032;-73
2021/05/29 03:48:47;;;;;;;26.50;20.77;;;19.10;99.90;;;;;;5054525;28;20100;-73
2021/05/29 03:51:13;;;;;;;26.65;21.15;;;19.10;99.90;;;;;;5054464;28;20060;-73
2021/05/29 03:53:39;;;;;;;26.38;21.15;;;19.20;99.90;;;;;;5053067;28;20075;-73
2021/05/29 03:56:05;;;;;;;23.38;20.10;;;19.20;99.90;;;;;;5054492;28;20053;-73
2021/05/29 03:58:31;;;;;;;24.45;20.40;;;19.20;99.90;;;;;;5054466;28;20100;-72
2021/05/29 04:00:57;;;;;;;24.80;20.55;;;19.20;99.90;;;;;;5054282;28;20498;-73
2021/05/29 04:03:23;;;;;;;27.85;19.98;;;19.30;99.90;;;;;;5054420;28;20029;-73
2021/05/29 04:05:49;;;;;;;24.23;19.20;;;19.30;99.90;;;;;;5054636;28;20029;-73
2021/05/29 04:08:15;;;;;;;24.20;17.42;;;19.40;99.90;;;;;;5053358;28;20024;-72
2021/05/29 04:10:41;;;;;;;40.40;21.30;;;19.50;99.90;;;;;;5054136;28;20048;-72
2021/05/29 04:13:07;;;;;;;27.23;18.17;;;19.50;99.90;;;;;;5054185;28;20516;-72
2021/05/29 04:15:32;;;;;;;22.17;17.35;;;19.70;99.90;;;;;;5054154;28;20117;-72
2021/05/29 04:18:00;;;;;;;25.38;17.15;;;19.80;99.90;;;;;;5053871;28;20088;-73
2021/05/29 04:20:28;;;;;;;21.27;14.98;;;20.10;99.90;;;;;;5054217;28;20049;-73
2021/05/29 04:22:54;;;;;;;22.98;15.38;;;20.50;99.90;;;;;;5054015;28;20044;-73
2021/05/29 04:25:24;;;;;;;18.02;13.93;;;21.20;99.90;;;;;;5054326;28;20055;-72
2021/05/29 04:27:50;;;;;;;31.17;27.15;;;22.00;99.90;;;;;;5053953;28;20045;-73
2021/05/29 04:30:19;;;;;;;16.70;13.00;;;22.80;99.90;;;;;;5053922;28;20104;-74
2021/05/29 04:32:45;;;;;;;18.88;12.82;;;23.50;99.90;;;;;;5053924;28;20452;-74
2021/05/29 04:35:12;;;;;;;13.63;11.50;;;24.10;99.90;;;;;;5053722;28;20036;-75
2021/05/29 04:37:38;;;;;;;14.20;11.90;;;24.60;99.90;;;;;;5053607;28;20079;-74
2021/05/29 04:40:06;;;;;;;14.90;10.32;;;25.20;98.30;;;;;;5053441;28;20357;-74
2021/05/29 04:42:32;;;;;;;11.68;10.10;;;25.80;96.60;;;;;;5053599;28;20035;-74
2021/05/29 04:44:58;;;;;;;13.40;9.80;;;26.60;95.80;;;;;;5053783;28;20033;-76
2021/05/29 04:47:23;;;;;;;11.95;9.98;;;27.70;93.90;;;;;;5053747;28;20460;-75
2021/05/29 04:49:49;;;;;;;20.55;10.00;;;28.80;91.80;;;;;;5053352;28;20132;-75
2021/05/29 04:52:15;;;;;;;13.02;9.80;;;29.70;86.80;;;;;;5052026;28;20063;-76
2021/05/29 04:54:40;;;;;;;9.98;8.90;;;30.30;81.30;;;;;;5053473;28;20545;-74
2021/05/29 04:57:06;;;;;;;23.30;9.98;;;30.60;78.50;;;;;;5053663;28;20731;-75
2021/05/29 04:59:32;;;;;;;14.15;9.77;;;30.80;75.50;;;;;;5053517;28;20068;-75
2021/05/29 05:01:58;;;;;;;15.65;9.35;;;30.80;73.10;;;;;;5052524;28;20098;-77
2021/05/29 05:04:24;;;;;;;10.30;8.10;;;30.60;71.10;;;;;;5053190;28;20025;-77
2021/05/29 05:06:50;;;;;;;8.98;7.20;;;30.20;70.80;;;;;;5052095;28;20552;-76
2021/05/29 05:09:15;;;;;;;10.45;7.30;;;29.50;70.10;;;;;;5052934;28;20494;-76
2021/05/29 05:11:41;;;;;;;10.73;7.97;;;28.90;70.10;;;;;;5053255;28;20482;-75
2021/05/29 05:14:07;;;;;;;11.00;7.97;;;28.20;70.70;;;;;;5053013;28;20171;-77
2021/05/29 05:16:33;;;;;;;8.20;7.10;;;27.50;71.80;;;;;;5052894;28;20021;-75
2021/05/29 05:18:58;;;;;;;11.52;7.65;;;26.90;72.70;;;;;;5051875;28;20494;-74
2021/05/29 05:21:24;;;;;;;8.60;7.55;;;26.40;73.30;;;;;;5052883;28;20033;-74
2021/05/29 05:23:52;;;;;;;9.60;7.45;;;25.90;74.00;;;;;;5051637;28;20470;-75
2021/05/29 05:26:18;;;;;;;11.32;8.20;;;25.40;75.00;;;;;;5052706;28;20108;-74
2021/05/29 05:28:45;;;;;;;13.35;7.40;;;25.00;76.20;;;;;;5052433;28;20072;-74
2021/05/29 05:31:12;;;;;;;18.30;9.63;;;24.70;76.90;;;;;;5052472;28;20032;-74
2021/05/29 05:33:41;;;;;;;12.95;7.25;;;24.50;77.90;;;;;;5052051;28;20086;-75
2021/05/29 05:36:08;;;;;;;9.85;7.72;;;24.30;78.50;;;;;;5052283;28;20021;-75
2021/05/29 05:38:38;;;;;;;13.80;7.95;;;24.10;79.10;;;;;;5052445;28;20021;-74
2021/05/29 05:41:05;;;;;;;15.43;7.90;;;23.90;79.90;;;;;;5052204;28;20045;-75
2021/05/29 05:43:31;;;;;;;18.52;8.32;;;23.80;80.20;;;;;;5052038;28;20079;-75
2021/05/29 05:45:57;;;;;;;10.60;8.20;;;23.70;80.70;;;;;;5052110;28;20044;-76
2021/05/29 05:48:23;;;;;;;10.52;8.13;;;23.60;81.00;;;;;;5052023;28;20021;-75
2021/05/29 05:50:56;;;;;;;15.73;8.38;;;23.60;81.20;;;;;;5051183;28;20021;-75
2021/05/29 05:53:24;;;;;;;7.97;7.20;;;23.50;81.50;;;;;;5050981;28;20022;-76
2021/05/29 05:55:58;;;;;;;14.10;8.80;;;23.40;81.50;;;;;;5051838;28;20013;-76
2021/05/29 05:58:25;;;;;;;11.07;7.97;;;23.40;81.50;;;;;;5052012;28;20521;-76
2021/05/29 06:00:51;;;;;;;10.02;8.18;;;23.30;81.70;;;;;;5052128;28;20434;-76
2021/05/29 06:03:19;;;;;;;19.05;8.00;;;23.20;81.60;;;;;;5052393;28;20029;-76
2021/05/29 06:05:44;;;;;;;18.65;8.43;;;23.10;81.90;;;;;;5051999;28;20021;-76
2021/05/29 06:08:10;;;;;;;10.55;8.02;;;23.00;81.90;;;;;;5051897;28;20681;-75
2021/05/29 06:10:36;;;;;;;10.75;8.85;;;22.90;82.00;;;;;;5051537;28;20033;-75
2021/05/29 06:13:02;;;;;;;14.90;9.50;;;22.80;82.40;;;;;;5051516;28;20025;-75
2021/05/29 06:20:45;;;;;;;8.68;7.78;;;22.50;83.60;;;;;;5051704;28;20476;-75
2021/05/29 06:23:12;;;;;;;9.27;8.13;;;22.50;84.70;;;;;;5050762;28;20387;-77
2021/05/29 06:25:39;;;;;;;14.68;10.98;;;22.40;84.50;;;;;;5051903;28;20025;-76
2021/05/29 06:28:05;;;;;;;13.68;8.73;;;22.40;84.80;;;;;;5051437;28;20053;-75
2021/05/29 06:30:31;;;;;;;8.57;7.70;;;22.30;84.90;;;;;;5050318;28;20369;-75
2021/05/29 06:32:57;;;;;;;11.30;8.65;;;22.30;85.00;;;;;;5051600;28;20021;-75
2021/05/29 06:35:23;;;;;;;13.00;8.57;;;22.20;85.30;;;;;;5051488;28;20027;-76
2021/05/29 06:37:48;;;;;;;12.10;8.50;;;22.20;85.60;;;;;;5051393;28;20013;-75
2021/05/29 06:40:14;;;;;;;12.13;8.77;;;22.20;85.80;;;;;;5051290;28;20033;-75
2021/05/29 06:42:40;;;;;;;10.77;9.50;;;22.20;85.80;;;;;;5051530;28;20040;-76
2021/05/29 06:45:07;;;;;;;14.82;10.27;;;22.20;85.70;;;;;;5051412;28;20518;-75
2021/05/29 06:47:34;;;;;;;17.30;10.38;;;22.30;86.10;;;;;;5051013;28;20082;-75
2021/05/29 06:50:00;;;;;;;10.18;7.60;;;22.30;86.20;;;;;;5050962;28;20459;-75
2021/05/29 06:52:30;;;;;;;10.65;7.82;;;22.40;85.90;;;;;;5051733;28;20017;-76
2021/05/29 07:00:10;;;;;;;12.02;9.70;;;22.50;85.80;;;;;;5051653;28;20032;-75
2021/05/29 07:02:36;;;;;;;9.95;8.82;;;22.50;86.30;;;;;;5054138;28;20052;-76
2021/05/29 07:05:04;;;;;;;11.90;9.75;;;22.50;86.50;;;;;;5056103;28;20021;-74
2021/05/29 07:07:30;;;;;;;11.02;9.27;;;22.50;86.70;;;;;;5055720;28;20025;-75
2021/05/29 07:09:57;;;;;;;10.52;9.45;;;22.50;86.80;;;;;;5054352;28;20024;-75
2021/05/29 07:12:23;;;;;;;13.43;9.48;;;22.40;86.60;;;;;;5053905;28;20021;-74
2021/05/29 07:14:49;;;;;;;10.68;9.55;;;22.40;86.40;;;;;;5053279;28;20025;-76
2021/05/29 07:17:15;;;;;;;13.02;10.40;;;22.30;86.60;;;;;;5054939;28;20025;-75
2021/05/29 07:19:41;;;;;;;11.38;9.68;;;22.30;86.70;;;;;;5054709;28;20540;-76
2021/05/29 07:22:07;;;;;;;12.52;9.57;;;22.30;86.90;;;;;;5053116;28;20060;-76
2021/05/29 07:24:33;;;;;;;9.98;8.70;;;22.20;86.90;;;;;;5054859;28;20063;-76
2021/05/29 07:27:00;;;;;;;21.15;17.10;;;22.20;86.80;;;;;;5053332;28;20025;-77
2021/05/29 07:29:27;;;;;;;17.25;13.70;;;22.20;86.80;;;;;;5057753;28;20391;-78
2021/05/29 07:31:55;;;;;;;12.35;9.70;;;22.20;87.30;;;;;;5055342;28;20449;-78
2021/05/29 07:34:23;;;;;;;11.88;10.68;;;22.20;87.30;;;;;;5053475;28;20021;-76
2021/05/29 07:36:49;;;;;;;12.38;9.50;;;22.20;87.30;;;;;;5054201;28;20028;-76
2021/05/29 07:39:14;;;;;;;11.27;9.15;;;22.30;87.30;;;;;;5055126;28;20024;-77
2021/05/29 07:41:40;;;;;;;10.77;9.73;;;22.30;87.20;;;;;;5054471;28;20029;-75
2021/05/29 07:44:07;;;;;;;13.32;8.70;;;22.30;87.10;;;;;;5055442;28;20033;-76
2021/05/29 07:46:33;;;;;;;10.35;9.30;;;22.30;86.80;;;;;;5055029;28;20083;-76
2021/05/29 07:49:00;;;;;;;12.23;9.85;;;22.40;86.50;;;;;;5054918;28;20151;-86
2021/05/29 07:51:26;;;;;;;11.60;9.93;;;22.40;86.40;;;;;;5056159;28;20104;-80
2021/05/29 07:53:52;;;;;;;17.98;11.52;;;22.40;86.70;;;;;;5053377;28;20035;-82
2021/05/29 07:56:21;;;;;;;14.88;9.93;;;22.50;86.70;;;;;;5054746;28;20821;-81
2021/05/29 07:58:48;;;;;;;12.95;9.40;;;22.60;86.50;;;;;;5055367;28;20466;-82
2021/05/29 08:01:15;;;;;;;12.63;8.82;;;22.80;86.50;;;;;;5054462;28;20487;-88
2021/05/29 08:03:41;;;;;;;10.88;8.55;;;23.00;86.30;;;;;;5055221;28;20585;-83
2021/05/29 08:06:14;;;;;;;13.48;7.72;;;23.20;85.80;;;;;;5055186;28;20032;-82
2021/05/29 08:08:40;;;;;;;13.02;8.15;;;23.40;84.80;;;;;;5052922;28;20025;-82
2021/05/29 08:11:06;;;;;;;14.70;8.00;;;23.70;84.30;;;;;;5054885;28;20032;-82
2021/05/29 08:13:32;;;;;;;17.83;6.97;;;24.20;84.10;;;;;;5054126;28;20021;-81
2021/05/29 08:15:58;;;;;;;14.52;7.55;;;25.00;83.70;;;;;;5055031;28;20028;-85
2021/05/29 08:18:27;;;;;;;9.05;6.43;;;25.90;81.60;;;;;;5053889;28;20052;-86
2021/05/29 08:20:56;;;;;;;8.40;6.50;;;26.70;78.50;;;;;;5052662;28;20036;-84
2021/05/29 08:23:22;;;;;;;20.08;8.30;;;27.10;75.30;;;;;;5061204;28;20033;-83
2021/05/29 08:25:47;;;;;;;15.55;7.47;;;27.40;73.90;;;;;;5062111;28;20032;-84
2021/05/29 08:28:14;;;;;;;20.77;6.93;;;27.70;73.10;;;;;;5057219;28;20053;-82
2021/05/29 08:30:40;;;;;;;8.20;6.50;;;28.00;72.10;;;;;;5057670;28;20114;-83
2021/05/29 08:33:06;;;;;;;13.32;6.80;;;28.30;70.80;;;;;;5053581;28;20036;-83
2021/05/29 08:35:32;;;;;;;39.65;10.38;;;28.70;69.80;;;;;;5054414;28;20100;-83
2021/05/29 08:37:58;;;;;;;21.58;9.65;;;28.90;69.00;;;;;;5053154;28;20029;-82
2021/05/29 08:40:24;;;;;;;32.13;8.15;;;28.90;67.90;;;;;;5054477;28;20101;-83
2021/05/29 08:42:50;;;;;;;17.40;7.75;;;28.90;67.00;;;;;;5054168;28;20539;-83
2021/05/29 08:45:18;;;;;;;8.00;7.20;;;28.80;66.60;;;;;;5053841;28;20135;-82
2021/05/29 08:47:45;;;;;;;12.43;8.27;;;28.60;65.80;;;;;;5052187;28;20052;-82
2021/05/29 08:50:11;;;;;;;18.13;9.30;;;28.30;65.30;;;;;;5052958;28;20436;-83
2021/05/29 08:52:39;;;;;;;17.50;10.40;;;27.90;65.70;;;;;;5053234;28;20023;-82
2021/05/29 08:55:10;;;;;;;24.45;11.23;;;27.60;66.10;;;;;;5052810;28;20105;-82
2021/05/29 08:57:37;;;;;;;15.63;10.35;;;27.30;66.30;;;;;;5051294;28;20480;-82
2021/05/29 09:00:09;;;;;;;16.00;9.52;;;27.00;66.80;;;;;;5052103;28;20447;-83
2021/05/29 09:02:53;;;;;;;;;;;26.60;67.10;;;;;;5060598;28;20116;-81
2021/05/29 09:05:19;;;;;;;15.65;10.25;;;26.40;69.70;;;;;;5057321;28;19911;-82
2021/05/29 09:07:46;;;;;;;18.67;10.85;;;26.20;69.90;;;;;;5054046;28;20029;-82
2021/05/29 09:10:22;;;;;;;18.00;11.07;;;26.00;69.90;;;;;;5052346;28;20021;-82
2021/05/29 09:13:15;;;;;;;19.13;10.10;;;26.10;70.10;;;;;;5053101;28;20025;-83
2021/05/29 09:15:46;;;;;;;13.60;10.25;;;26.40;70.50;;;;;;5053278;28;20013;-82
2021/05/29 09:18:25;;;;;;;16.27;10.68;;;26.90;70.40;;;;;;5051430;28;20025;-82
2021/05/29 09:20:52;;;;;;;10.65;9.48;;;27.70;69.20;;;;;;5054218;28;20040;-84
2021/05/29 09:23:17;;;;;;;14.80;10.13;;;28.30;68.00;;;;;;5054745;28;20495;-82
2021/05/29 09:25:55;;;;;;;12.90;9.80;;;28.80;66.30;;;;;;5053502;28;20044;-84
2021/05/29 09:28:25;;;;;;;14.25;10.25;;;29.20;64.40;;;;;;5054443;28;20049;-84
2021/05/29 09:30:53;;;;;;;13.00;9.40;;;29.50;63.30;;;;;;5053821;28;20032;-83
2021/05/29 09:33:34;;;;;;;10.30;9.18;;;29.60;62.50;;;;;;5051895;28;20021;-79
2021/05/29 09:36:11;;;;;;;10.50;9.38;;;29.80;62.20;;;;;;5051092;28;20017;-77
2021/05/29 09:38:44;;;;;;;13.00;9.00;;;30.20;61.40;;;;;;5051799;28;20025;-78
2021/05/29 09:41:27;;;;;;;9.38;7.25;;;30.50;61.00;;;;;;5050852;28;20029;-77
2021/05/29 09:44:04;;;;;;;10.32;8.07;;;30.70;59.20;;;;;;5053453;28;20495;-77
2021/05/29 09:46:49;;;;;;;9.93;7.50;;;30.90;58.30;;;;;;5052016;28;20021;-77
2021/05/29 09:49:14;;;;;;;9.30;7.18;;;31.00;57.70;;;;;;5051318;28;20028;-77
2021/05/29 09:51:40;;;;;;;15.68;9.90;;;31.00;57.20;;;;;;5051594;28;20023;-76
2021/05/29 09:54:11;;;;;;;11.43;8.13;;;31.10;56.80;;;;;;5051465;28;20454;-75
2021/05/29 09:56:41;;;;;;;15.57;10.30;;;31.00;55.70;;;;;;5051511;28;20071;-77
2021/05/29 09:59:10;;;;;;;13.25;7.80;;;31.00;55.80;;;;;;5051423;28;20029;-75
2021/05/29 10:01:52;;;;;;;13.88;8.18;;;30.90;55.00;;;;;;5051295;28;20476;-74
2021/05/29 10:05:12;;;;;;;9.65;8.30;;;30.70;54.20;;;;;;5049452;28;20036;-73
2021/05/29 10:07:13;;;;;;;13.50;9.40;;;30.60;54.20;;;;;;5046851;28;20399;-75
2021/05/29 10:09:40;;;;;;;17.05;9.77;;;30.40;54.40;;;;;;5050907;28;20027;-74
2021/05/29 10:12:07;;;;;;;11.35;8.57;;;30.30;53.80;;;;;;5050834;28;20451;-75
2021/05/29 10:14:34;;;;;;;21.08;10.88;;;30.20;53.70;;;;;;5050231;28;20025;-75
2021/05/29 10:17:03;;;;;;;11.23;10.05;;;30.10;54.30;;;;;;5050963;28;20051;-75
2021/05/29 10:19:32;;;;;;;12.63;10.52;;;29.90;54.30;;;;;;5050683;28;20498;-75
2021/05/29 10:22:08;;;;;;;13.40;10.88;;;29.80;54.10;;;;;;5049577;28;20039;-75
2021/05/29 10:24:35;;;;;;;14.30;11.52;;;29.80;54.20;;;;;;5051448;28;20082;-75
2021/05/29 10:27:06;;;;;;;12.07;10.63;;;29.80;54.00;;;;;;5049331;28;20029;-75
2021/05/29 10:29:33;;;;;;;16.92;11.38;;;29.70;53.50;;;;;;5050600;28;20025;-74
2021/05/29 10:32:10;;;;;;;14.73;11.63;;;29.70;53.70;;;;;;5050651;28;20021;-73
2021/05/29 10:35:05;;;;;;;12.38;10.13;;;29.50;53.50;;;;;;5049563;28;20052;-74
2021/05/29 10:37:36;;;;;;;11.45;8.70;;;29.50;53.20;;;;;;5049941;28;20017;-74
2021/05/29 10:40:30;;;;;;;15.70;8.82;;;29.40;53.50;;;;;;5050686;28;20021;-75
2021/05/29 10:43:26;;;;;;;11.15;8.65;;;29.30;53.60;;;;;;5050221;28;20036;-76
2021/05/29 10:45:51;;;;;;;12.45;8.15;;;29.20;53.80;;;;;;5049263;28;20136;-75
2021/05/29 10:48:19;;;;;;;16.15;8.93;;;29.20;54.00;;;;;;5049314;28;20104;-76
2021/05/29 10:50:58;;;;;;;16.25;11.05;;;29.20;53.90;;;;;;5050250;28;20117;-74
2021/05/29 10:53:47;;;;;;;10.25;7.78;;;29.10;54.30;;;;;;5050672;28;20021;-74
2021/05/29 10:56:16;;;;;;;10.20;7.05;;;29.10;54.20;;;;;;5050883;28;20017;-75
2021/05/29 10:59:13;;;;;;;13.35;9.07;;;29.10;53.50;;;;;;5051096;28;20021;-75
2021/05/29 11:01:42;;;;;;;12.45;8.30;;;29.10;53.20;;;;;;5050745;28;20017;-75
2021/05/29 11:06:50;;;;;;;13.52;10.98;;;29.00;53.60;;;;;;5050166;28;20059;-74
2021/05/29 11:09:45;;;;;;;20.15;11.93;;;28.80;54.20;;;;;;5050106;28;20025;-74
2021/05/29 11:12:12;;;;;;;16.10;12.07;;;28.70;54.10;;;;;;5050295;28;20111;-77
2021/05/29 11:14:56;;;;;;;14.88;12.10;;;28.60;54.90;;;;;;5050248;28;20096;-73
2021/05/29 11:17:27;;;;;;;14.55;11.05;;;28.50;55.80;;;;;;5050083;28;20025;-74
2021/05/29 11:20:22;;;;;;;15.88;11.63;;;28.40;56.40;;;;;;5050466;28;20025;-75
2021/05/29 11:22:49;;;;;;;15.27;11.82;;;28.20;56.70;;;;;;5040114;28;20368;-74
2021/05/29 11:25:20;;;;;;;20.45;13.05;;;28.10;57.00;;;;;;5050015;28;20029;-73
2021/05/29 11:27:48;;;;;;;18.35;12.20;;;28.00;57.30;;;;;;5049140;28;20136;-74
2021/05/29 11:30:21;;;;;;;18.50;11.73;;;27.80;57.50;;;;;;5049975;28;20040;-74
2021/05/29 11:33:13;;;;;;;21.08;10.38;;;27.70;57.80;;;;;;5050118;28;20017;-74
2021/05/29 11:35:49;;;;;;;13.02;8.52;;;27.70;58.20;;;;;;5050767;28;20032;-75
2021/05/29 11:38:27;;;;;;;16.50;9.68;;;27.60;58.40;;;;;;5050294;28;20205;-75
2021/05/29 11:40:59;;;;;;;14.25;10.00;;;27.70;58.50;;;;;;5049507;28;20060;-76
2021/05/29 11:43:50;;;;;;;13.27;8.75;;;27.80;58.30;;;;;;5049876;28;20037;-75
2021/05/29 11:46:27;;;;;;;17.48;9.77;;;27.90;57.90;;;;;;5049467;28;20040;-74
2021/05/29 11:48:58;;;;;;;13.63;8.73;;;28.00;57.70;;;;;;5051115;28;20052;-75
2021/05/29 11:51:34;;;;;;;17.42;7.70;;;27.90;57.70;;;;;;5053074;28;20025;-75
2021/05/29 11:54:18;;;;;;;19.58;8.57;;;27.90;57.70;;;;;;5053749;28;20762;-75
2021/05/29 11:56:49;;;;;;;19.98;7.80;;;27.90;57.80;;;;;;5053720;28;20087;-75
2021/05/29 11:59:22;;;;;;;20.58;8.40;;;27.90;57.50;;;;;;5053735;28;20029;-75
2021/05/29 12:01:52;;;;;;;16.92;9.20;;;27.80;57.70;;;;;;5052257;28;20025;-75
2021/05/29 12:04:21;;;;;;;12.35;7.47;;;27.80;57.90;;;;;;5053387;28;20018;-75
2021/05/29 12:06:57;;;;;;;15.50;7.93;;;27.90;58.10;;;;;;5051423;28;20078;-77
2021/05/29 12:09:27;;;;;;;10.40;7.00;;;27.90;57.90;;;;;;5053126;28;20079;-77
2021/05/29 12:12:00;;;;;;;10.00;7.20;;;28.10;57.50;;;;;;5053721;28;20056;-76
2021/05/29 12:14:32;;;;;;;17.20;7.68;;;28.10;56.90;;;;;;5053532;28;20363;-76
2021/05/29 12:16:59;;;;;;;15.55;7.50;;;28.00;57.00;;;;;;5053250;28;20044;-77
2021/05/29 12:19:30;;;;;;;24.85;9.15;;;27.80;57.00;;;;;;5053271;28;20033;-77
2021/05/29 12:22:17;;;;;;;19.23;7.43;;;27.70;57.20;;;;;;5051317;28;20115;-77
2021/05/29 12:24:59;;;;;;;14.77;7.90;;;27.60;57.40;;;;;;5041181;28;20399;-77
2021/05/29 12:27:27;;;;;;;18.33;7.13;;;27.60;57.50;;;;;;5051299;28;20045;-77
2021/05/29 12:30:04;;;;;;;23.13;7.93;;;27.70;57.30;;;;;;5052701;28;20048;-77
2021/05/29 12:32:39;;;;;;;14.05;6.78;;;27.70;57.20;;;;;;5053024;28;20053;-75
2021/05/29 12:35:07;;;;;;;15.00;6.00;;;27.70;57.10;;;;;;5052240;28;20036;-77
2021/05/29 12:37:33;;;;;;;11.40;6.88;;;27.70;57.10;;;;;;5052425;28;20023;-78
2021/05/29 12:40:11;;;;;;;10.63;5.68;;;27.60;57.10;;;;;;5052602;28;20037;-79
2021/05/29 12:42:44;;;;;;;11.95;6.07;;;27.60;57.20;;;;;;5053338;28;20165;-78
2021/05/29 12:45:24;;;;;;;12.40;5.70;;;27.50;57.40;;;;;;5053341;28;20112;-78
2021/05/29 12:47:58;;;;;;;8.35;6.13;;;27.30;57.50;;;;;;5053675;28;20029;-77
2021/05/29 12:50:38;;;;;;;12.43;4.88;;;27.10;57.80;;;;;;5053785;28;20029;-77
2021/05/29 12:53:11;;;;;;;11.23;5.03;;;26.90;58.00;;;;;;5052859;28;20147;-78
2021/05/29 12:55:37;;;;;;;13.13;4.45;;;26.80;58.10;;;;;;5052966;28;20079;-77
2021/05/29 12:58:23;;;;;;;10.82;4.55;;;26.80;58.40;;;;;;5053283;28;20021;-78